createdAt,value
2022-09-24T00:02:11.715Z,13.09
2022-09-24T00:04:41.121Z,12.67
2022-09-24T00:07:10.962Z,12.75
2022-09-24T00:09:40.560Z,12.65
2022-09-24T00:12:13.238Z,12.74
2022-09-24T00:14:44.232Z,12.74
2022-09-24T00:17:13.910Z,12.91
2022-09-24T00:19:44.643Z,12.80
2022-09-24T00:22:15.986Z,13.26
2022-09-24T00:25:02.668Z,13.70
2022-09-24T00:27:32.100Z,13.32
2022-09-24T00:30:03.037Z,13.05
2022-09-24T00:32:32.707Z,13.02
2022-09-24T00:35:03.187Z,12.75
2022-09-24T00:37:32.640Z,12.61
2022-09-24T00:40:01.775Z,12.77
2022-09-24T00:42:32.447Z,13.83
2022-09-24T00:45:04.772Z,12.99
2022-09-24T00:47:37.587Z,13.00
2022-09-24T00:50:17.479Z,13.11
2022-09-24T00:52:51.845Z,12.67
2022-09-24T00:55:23.999Z,12.69
2022-09-24T00:57:56.304Z,12.83
2022-09-24T01:00:27.894Z,12.53
2022-09-24T01:03:00.245Z,13.51
2022-09-24T01:05:29.612Z,12.85
2022-09-24T01:08:00.207Z,13.18
2022-09-24T01:10:51.533Z,12.97
2022-09-24T01:13:43.572Z,13.73
2022-09-24T01:16:20.980Z,13.11
2022-09-24T01:18:58.157Z,13.18
2022-09-24T01:21:34.201Z,12.81
2022-09-24T01:24:32.570Z,12.60
2022-09-24T01:27:07.958Z,13.48
2022-09-24T01:30:04.737Z,13.27
2022-09-24T01:32:38.580Z,13.24
2022-09-24T01:35:13.478Z,12.71
2022-09-24T01:37:46.249Z,12.75
2022-09-24T01:40:16.189Z,12.63
2022-09-24T01:42:47.838Z,13.07
2022-09-24T01:45:19.254Z,13.23
2022-09-24T01:47:49.201Z,13.04
2022-09-24T01:50:21.270Z,12.74
2022-09-24T01:52:59.012Z,12.88
2022-09-24T01:55:31.192Z,12.85
2022-09-24T01:58:05.319Z,13.15
2022-09-24T02:00:37.253Z,12.82
2022-09-24T02:03:12.694Z,12.64
2022-09-24T02:05:45.679Z,12.72
2022-09-24T02:08:18.116Z,12.42
2022-09-24T02:10:49.818Z,12.57
2022-09-24T02:13:20.963Z,12.83
2022-09-24T02:15:53.994Z,12.72
2022-09-24T02:18:28.044Z,12.65
2022-09-24T02:20:58.015Z,13.24
2022-09-24T02:23:29.560Z,12.42
2022-09-24T02:26:02.870Z,13.14
2022-09-24T02:28:33.690Z,12.90
2022-09-24T02:31:08.358Z,12.37
2022-09-24T02:34:04.937Z,13.15
2022-09-24T02:36:35.349Z,13.10
2022-09-24T02:39:04.969Z,12.86
2022-09-24T02:41:34.749Z,12.68
2022-09-24T02:44:05.164Z,12.76
2022-09-24T02:46:36.258Z,12.79
2022-09-24T02:49:06.148Z,12.12
2022-09-24T02:51:35.514Z,12.56
2022-09-24T02:54:08.417Z,12.75
2022-09-24T02:56:38.244Z,12.57
2022-09-24T02:59:08.578Z,12.91
2022-09-24T03:01:39.743Z,12.88
2022-09-24T03:04:12.862Z,13.05
2022-09-24T03:06:43.199Z,12.81
2022-09-24T03:09:13.897Z,12.41
2022-09-24T03:11:43.839Z,12.82
2022-09-24T03:14:13.727Z,12.90
2022-09-24T03:16:44.445Z,12.74
2022-09-24T03:19:14.295Z,12.53
2022-09-24T03:21:43.656Z,12.72
2022-09-24T03:24:13.481Z,12.62
2022-09-24T03:26:43.923Z,12.90
2022-09-24T03:29:13.713Z,13.27
2022-09-24T03:31:44.135Z,12.78
2022-09-24T03:34:13.855Z,12.85
2022-09-24T03:36:43.775Z,12.60
2022-09-24T03:39:13.761Z,12.41
2022-09-24T03:41:43.649Z,12.68
2022-09-24T03:44:19.334Z,12.73
2022-09-24T03:46:51.847Z,12.80
2022-09-24T03:49:21.407Z,12.38
2022-09-24T03:52:15.166Z,12.74
2022-09-24T03:54:48.580Z,12.69
2022-09-24T03:57:18.636Z,12.29
2022-09-24T03:59:48.593Z,12.13
2022-09-24T04:02:34.859Z,12.61
2022-09-24T04:05:07.119Z,12.28
2022-09-24T04:07:36.352Z,12.57
2022-09-24T04:10:10.498Z,12.90
2022-09-24T04:12:41.115Z,12.57
2022-09-24T04:15:14.151Z,12.56
2022-09-24T04:17:50.855Z,12.52
2022-09-24T04:20:23.975Z,13.05
2022-09-24T04:22:54.693Z,11.88
2022-09-24T04:25:25.157Z,11.96
2022-09-24T04:27:56.567Z,11.66
2022-09-24T04:30:27.539Z,11.80
2022-09-24T04:33:01.590Z,11.75
2022-09-24T04:36:14.071Z,12.63
2022-09-24T04:38:44.185Z,12.81
2022-09-24T04:41:13.834Z,12.66
2022-09-24T04:43:47.306Z,12.32
2022-09-24T04:46:21.092Z,12.08
2022-09-24T04:48:54.446Z,12.11
2022-09-24T04:51:23.971Z,11.55
2022-09-24T04:53:53.312Z,12.33
2022-09-24T04:56:22.717Z,12.54
2022-09-24T04:58:53.578Z,12.58
2022-09-24T05:01:23.837Z,12.99
2022-09-24T05:03:54.483Z,12.38
2022-09-24T05:06:24.134Z,12.57
2022-09-24T05:08:53.603Z,12.74
2022-09-24T05:11:22.881Z,12.20
2022-09-24T05:13:52.521Z,12.07
2022-09-24T05:16:22.698Z,12.65
2022-09-24T05:18:55.564Z,13.33
2022-09-24T05:21:28.555Z,12.15
2022-09-24T05:24:16.953Z,11.51
2022-09-24T05:27:04.090Z,11.79
2022-09-24T05:29:35.737Z,12.14
2022-09-24T05:32:09.100Z,12.06
2022-09-24T05:34:41.430Z,12.34
2022-09-24T05:37:11.516Z,11.84
2022-09-24T05:39:43.452Z,12.23
2022-09-24T05:42:15.092Z,12.24
2022-09-24T05:44:48.625Z,12.03
2022-09-24T05:47:21.118Z,12.86
2022-09-24T05:49:52.160Z,12.97
2022-09-24T05:52:21.929Z,13.41
2022-09-24T05:54:51.648Z,13.35
2022-09-24T05:57:23.730Z,13.40
2022-09-24T05:59:54.291Z,13.65
2022-09-24T06:02:23.900Z,12.32
2022-09-24T06:04:55.392Z,13.06
2022-09-24T06:07:24.850Z,12.87
2022-09-24T06:09:59.618Z,13.41
2022-09-24T06:12:29.087Z,13.54
2022-09-24T06:14:58.674Z,13.07
2022-09-24T06:17:28.929Z,13.42
2022-09-24T06:20:00.186Z,12.55
2022-09-24T06:22:30.326Z,12.71
2022-09-24T06:25:02.263Z,13.25
2022-09-24T06:27:34.976Z,13.12
2022-09-24T06:30:04.938Z,12.61
2022-09-24T06:32:35.043Z,13.37
2022-09-24T06:35:07.302Z,12.79
2022-09-24T06:37:36.772Z,12.40
2022-09-24T06:40:07.151Z,12.54
2022-09-24T06:42:38.280Z,13.12
2022-09-24T06:45:08.871Z,13.01
2022-09-24T06:47:39.597Z,13.09
2022-09-24T06:50:12.117Z,13.25
2022-09-24T06:52:41.547Z,13.18
2022-09-24T06:55:11.477Z,13.32
2022-09-24T06:57:41.195Z,13.45
2022-09-24T07:00:12.307Z,14.01
2022-09-24T07:02:41.867Z,13.32
2022-09-24T07:05:13.150Z,13.38
2022-09-24T07:07:43.066Z,13.48
2022-09-24T07:10:13.516Z,14.08
2022-09-24T07:12:43.708Z,13.58
2022-09-24T07:15:13.837Z,14.08
2022-09-24T07:17:43.515Z,13.77
2022-09-24T07:20:14.533Z,13.83
2022-09-24T07:22:44.244Z,13.84
2022-09-24T07:25:13.842Z,13.43
2022-09-24T07:27:42.833Z,14.02
2022-09-24T07:30:15.572Z,13.97
2022-09-24T07:32:45.039Z,14.04
2022-09-24T07:35:21.262Z,14.21
2022-09-24T07:37:50.557Z,14.21
2022-09-24T07:40:23.713Z,13.56
2022-09-24T07:42:54.420Z,13.70
2022-09-24T07:45:24.689Z,13.78
2022-09-24T07:47:59.859Z,13.87
2022-09-24T07:50:33.609Z,14.06
2022-09-24T07:53:02.996Z,14.48
2022-09-24T07:55:34.127Z,14.39
2022-09-24T07:58:03.478Z,14.48
2022-09-24T08:00:36.025Z,14.88
2022-09-24T08:03:06.184Z,15.13
2022-09-24T08:05:44.416Z,14.77
2022-09-24T08:08:16.587Z,14.88
2022-09-24T08:10:46.932Z,14.72
2022-09-24T08:13:18.408Z,14.31
2022-09-24T08:15:53.126Z,14.46
2022-09-24T08:18:22.524Z,14.16
2022-09-24T08:20:55.865Z,14.59
2022-09-24T08:23:26.724Z,14.09
2022-09-24T08:25:59.025Z,14.15
2022-09-24T08:28:30.051Z,14.62
2022-09-24T08:31:00.714Z,14.51
2022-09-24T08:33:32.118Z,14.25
2022-09-24T08:36:05.124Z,14.51
2022-09-24T08:38:34.787Z,14.43
2022-09-24T08:41:11.448Z,14.69
2022-09-24T08:43:48.423Z,14.55
2022-09-24T08:46:37.777Z,15.00
2022-09-24T08:49:07.845Z,15.13
2022-09-24T08:51:47.822Z,15.25
2022-09-24T08:54:17.593Z,15.49
2022-09-24T08:56:48.453Z,15.39
2022-09-24T08:59:30.932Z,15.37
2022-09-24T09:02:15.843Z,15.15
2022-09-24T09:04:56.026Z,15.16
2022-09-24T09:07:30.747Z,15.29
2022-09-24T09:10:05.482Z,15.36
2022-09-24T09:12:38.791Z,15.37
2022-09-24T09:15:11.997Z,15.38
2022-09-24T09:17:45.863Z,15.52
2022-09-24T09:20:24.538Z,15.58
2022-09-24T09:22:57.674Z,15.69
2022-09-24T09:25:30.315Z,15.63
2022-09-24T09:28:02.928Z,15.69
2022-09-24T09:31:00.075Z,15.77
2022-09-24T09:33:44.561Z,15.77
2022-09-24T09:36:39.737Z,15.87
2022-09-24T09:39:22.753Z,15.84
2022-09-24T09:41:58.135Z,15.88
2022-09-24T09:44:29.406Z,16.13
2022-09-24T09:47:07.060Z,16.12
2022-09-24T09:49:38.710Z,16.05
2022-09-24T09:52:14.887Z,16.12
2022-09-24T09:54:45.828Z,16.16
2022-09-24T09:57:17.687Z,16.10
2022-09-24T09:59:48.689Z,16.37
2022-09-24T10:02:24.787Z,16.36
2022-09-24T10:04:56.231Z,16.67
2022-09-24T10:07:25.845Z,16.75
2022-09-24T10:10:05.268Z,16.73
2022-09-24T10:12:34.545Z,16.75
2022-09-24T10:15:05.130Z,16.98
2022-09-24T10:17:37.033Z,16.88
2022-09-24T10:20:11.577Z,17.08
2022-09-24T10:22:45.134Z,17.09
2022-09-24T10:25:24.721Z,17.33
2022-09-24T10:27:55.299Z,17.22
2022-09-24T10:30:35.411Z,17.50
2022-09-24T10:33:06.490Z,17.40
2022-09-24T10:35:39.198Z,17.54
2022-09-24T10:38:19.210Z,17.70
2022-09-24T10:40:50.788Z,17.81
2022-09-24T10:43:22.105Z,18.49
2022-09-24T10:46:13.142Z,18.43
2022-09-24T10:48:46.045Z,18.60
2022-09-24T10:51:28.799Z,18.67
2022-09-24T10:54:19.360Z,18.83
2022-09-24T10:56:55.189Z,18.65
2022-09-24T10:59:35.766Z,19.07
2022-09-24T11:02:23.160Z,18.94
2022-09-24T11:04:53.302Z,19.15
2022-09-24T11:07:55.761Z,19.28
2022-09-24T11:10:33.795Z,19.19
2022-09-24T11:13:15.569Z,19.76
2022-09-24T11:16:00.277Z,19.77
2022-09-24T11:18:38.670Z,19.93
2022-09-24T11:21:16.766Z,19.94
2022-09-24T11:24:04.513Z,19.91
2022-09-24T11:26:41.445Z,20.08
2022-09-24T11:29:26.721Z,20.63
2022-09-24T11:32:06.679Z,20.38
2022-09-24T11:34:50.758Z,20.45
2022-09-24T11:37:33.694Z,20.31
2022-09-24T11:40:12.753Z,20.22
2022-09-24T11:42:53.504Z,20.32
2022-09-24T11:45:38.094Z,21.02
2022-09-24T11:48:25.273Z,20.90
2022-09-24T11:51:02.542Z,20.84
2022-09-24T11:53:38.872Z,20.83
2022-09-24T11:56:13.413Z,20.96
2022-09-24T11:58:47.274Z,21.32
2022-09-24T12:01:21.497Z,21.27
2022-09-24T12:03:57.162Z,21.75
2022-09-24T12:06:32.193Z,21.19
2022-09-24T12:09:06.452Z,21.42
2022-09-24T12:11:41.783Z,21.43
2022-09-24T12:14:16.395Z,21.59
2022-09-24T12:16:50.463Z,21.39
2022-09-24T12:19:24.551Z,21.09
2022-09-24T12:21:55.013Z,21.03
2022-09-24T12:24:32.823Z,21.32
2022-09-24T12:27:04.076Z,21.65
2022-09-24T12:30:00.054Z,21.60
2022-09-24T12:32:54.304Z,21.35
2022-09-24T12:35:33.555Z,21.86
2022-09-24T12:38:07.349Z,21.89
2022-09-24T12:41:13.604Z,21.67
2022-09-24T12:43:46.242Z,21.43
2022-09-24T12:46:20.820Z,21.45
2022-09-24T12:48:51.871Z,21.36
2022-09-24T12:51:24.010Z,21.38
2022-09-24T12:54:01.779Z,21.40
2022-09-24T12:56:32.116Z,21.59
2022-09-24T12:59:04.390Z,21.60
2022-09-24T13:01:34.771Z,22.00
2022-09-24T13:04:22.356Z,22.56
2022-09-24T13:06:51.703Z,22.88
2022-09-24T13:09:33.975Z,22.67
2022-09-24T13:12:07.091Z,23.00
2022-09-24T13:14:36.804Z,22.91
2022-09-24T13:17:07.806Z,22.33
2022-09-24T13:19:42.050Z,22.39
2022-09-24T13:22:23.403Z,22.66
2022-09-24T13:24:54.628Z,21.85
2022-09-24T13:27:37.638Z,22.18
2022-09-24T13:30:18.053Z,22.06
2022-09-24T13:32:52.563Z,22.12
2022-09-24T13:35:29.125Z,22.01
2022-09-24T13:38:04.928Z,22.28
2022-09-24T13:40:38.766Z,22.66
2022-09-24T13:43:14.373Z,23.03
2022-09-24T13:45:47.530Z,23.35
2022-09-24T13:48:22.922Z,22.41
2022-09-24T13:50:54.625Z,21.88
2022-09-24T13:53:31.848Z,21.78
2022-09-24T13:56:05.738Z,21.75
2022-09-24T13:58:36.384Z,21.78
2022-09-24T14:01:12.553Z,21.63
2022-09-24T14:03:43.781Z,21.51
2022-09-24T14:06:16.515Z,21.60
2022-09-24T14:08:47.571Z,21.61
2022-09-24T14:11:19.771Z,21.41
2022-09-24T14:13:49.821Z,21.49
2022-09-24T14:16:20.757Z,21.35
2022-09-24T14:19:01.760Z,21.25
2022-09-24T14:21:36.181Z,21.27
2022-09-24T14:24:09.244Z,21.13
2022-09-24T14:26:42.707Z,21.28
2022-09-24T14:29:18.359Z,21.16
2022-09-24T14:31:48.924Z,21.16
2022-09-24T14:34:30.343Z,21.22
2022-09-24T14:37:09.115Z,20.86
2022-09-24T14:39:42.630Z,21.04
2022-09-24T14:42:14.731Z,20.80
2022-09-24T14:44:46.923Z,20.69
2022-09-24T14:47:27.843Z,21.14
2022-09-24T14:49:58.076Z,20.86
2022-09-24T14:52:33.615Z,20.65
2022-09-24T14:55:06.631Z,20.51
2022-09-24T14:57:39.107Z,20.64
2022-09-24T15:00:25.255Z,20.50
2022-09-24T15:02:59.146Z,20.47
2022-09-24T15:05:29.607Z,20.43
2022-09-24T15:08:30.957Z,20.29
2022-09-24T15:11:02.326Z,20.17
2022-09-24T15:13:34.836Z,20.24
2022-09-24T15:16:07.690Z,20.25
2022-09-24T15:18:36.844Z,20.19
2022-09-24T15:21:08.876Z,20.10
2022-09-24T15:23:40.274Z,20.06
2022-09-24T15:26:11.982Z,19.99
2022-09-24T15:28:42.128Z,19.96
2022-09-24T15:31:11.856Z,19.94
2022-09-24T15:33:41.434Z,19.98
2022-09-24T15:36:14.884Z,19.85
2022-09-24T15:38:45.836Z,19.82
2022-09-24T15:41:16.924Z,19.66
2022-09-24T15:43:46.299Z,19.64
2022-09-24T15:46:15.908Z,19.62
2022-09-24T15:48:48.103Z,19.58
2022-09-24T15:51:20.630Z,19.49
2022-09-24T15:53:51.605Z,19.48
2022-09-24T15:56:20.964Z,19.41
2022-09-24T15:58:50.409Z,19.30
2022-09-24T16:01:19.984Z,19.30
2022-09-24T16:03:49.541Z,19.20
2022-09-24T16:06:19.175Z,19.12
2022-09-24T16:08:48.299Z,19.09
2022-09-24T16:14:01.195Z,18.99
2022-09-24T16:16:30.479Z,18.96
2022-09-24T16:18:59.811Z,18.89
2022-09-24T16:21:29.592Z,18.86
2022-09-24T16:24:00.679Z,18.75
2022-09-24T16:26:30.270Z,18.76
2022-09-24T16:29:02.855Z,18.68
2022-09-24T16:31:33.022Z,18.57
2022-09-24T16:34:02.464Z,18.56
2022-09-24T16:36:32.084Z,18.51
2022-09-24T16:39:01.267Z,18.46
2022-09-24T16:41:34.456Z,18.41
2022-09-24T16:44:07.120Z,18.35
2022-09-24T16:46:36.575Z,18.34
2022-09-24T16:49:06.676Z,18.26
2022-09-24T16:51:35.727Z,18.37
2022-09-24T16:54:05.727Z,18.19
2022-09-24T16:56:35.276Z,18.15
2022-09-24T16:59:06.456Z,18.06
2022-09-24T17:01:35.808Z,18.01
2022-09-24T17:04:05.915Z,17.95
2022-09-24T17:06:35.486Z,17.83
2022-09-24T17:09:23.008Z,17.83
2022-09-24T17:11:52.466Z,17.84
2022-09-24T17:14:26.137Z,17.83
2022-09-24T17:16:55.869Z,17.77
2022-09-24T17:19:26.832Z,17.60
2022-09-24T17:21:56.151Z,17.50
2022-09-24T17:24:25.508Z,17.37
2022-09-24T17:26:56.656Z,17.33
2022-09-24T17:29:31.301Z,17.34
2022-09-24T17:32:01.988Z,17.29
2022-09-24T17:34:33.740Z,17.20
2022-09-24T17:37:03.412Z,17.13
2022-09-24T17:39:32.406Z,17.27
2022-09-24T17:42:04.706Z,17.11
2022-09-24T17:44:36.149Z,17.16
2022-09-24T17:47:08.205Z,17.38
2022-09-24T17:49:37.853Z,17.29
2022-09-24T17:52:07.678Z,16.99
2022-09-24T17:54:37.487Z,16.86
2022-09-24T17:57:06.906Z,16.82
2022-09-24T17:59:38.048Z,17.05
2022-09-24T18:02:10.823Z,16.86
2022-09-24T18:04:40.458Z,16.63
2022-09-24T18:07:12.982Z,16.62
2022-09-24T18:09:44.752Z,16.65
2022-09-24T18:12:17.341Z,16.73
2022-09-24T18:14:48.801Z,16.55
2022-09-24T18:17:18.313Z,16.43
2022-09-24T18:19:47.823Z,16.43
2022-09-24T18:22:17.366Z,16.50
2022-09-24T18:24:48.687Z,16.33
2022-09-24T18:27:17.950Z,16.58
2022-09-24T18:29:48.712Z,16.25
2022-09-24T18:32:19.867Z,16.11
2022-09-24T18:34:49.174Z,16.08
2022-09-24T18:37:18.212Z,16.06
2022-09-24T18:39:47.556Z,16.11
2022-09-24T18:42:17.206Z,15.98
2022-09-24T18:44:48.618Z,16.02
2022-09-24T18:47:20.427Z,15.84
2022-09-24T18:49:49.789Z,15.85
2022-09-24T18:52:19.300Z,15.77
2022-09-24T18:54:49.003Z,15.71
2022-09-24T18:57:18.526Z,15.92
2022-09-24T18:59:49.893Z,16.41
2022-09-24T19:02:21.829Z,16.34
2022-09-24T19:04:51.456Z,16.47
2022-09-24T19:07:20.501Z,15.75
2022-09-24T19:09:49.635Z,15.88
2022-09-24T19:12:19.672Z,15.91
2022-09-24T19:14:54.232Z,15.96
2022-09-24T19:17:23.967Z,15.57
2022-09-24T19:19:53.436Z,15.51
2022-09-24T19:22:25.884Z,15.77
2022-09-24T19:24:57.077Z,15.43
2022-09-24T19:27:26.644Z,15.40
2022-09-24T19:30:01.258Z,15.48
2022-09-24T19:32:31.185Z,15.41
2022-09-24T19:35:01.203Z,15.25
2022-09-24T19:37:30.414Z,16.05
2022-09-24T19:40:03.078Z,15.60
2022-09-24T19:42:33.520Z,15.49
2022-09-24T19:45:05.866Z,15.84
2022-09-24T19:47:37.532Z,15.82
2022-09-24T19:50:07.303Z,15.66
2022-09-24T19:52:37.294Z,15.56
2022-09-24T19:55:07.297Z,15.38
2022-09-24T19:57:36.940Z,15.46
2022-09-24T20:00:10.179Z,15.24
2022-09-24T20:02:39.915Z,15.12
2022-09-24T20:05:10.101Z,15.39
2022-09-24T20:07:42.391Z,15.28
2022-09-24T20:10:12.388Z,15.12
2022-09-24T20:12:46.730Z,15.05
2022-09-24T20:15:18.047Z,15.04
2022-09-24T20:17:47.512Z,15.41
2022-09-24T20:20:16.888Z,15.02
2022-09-24T20:22:46.752Z,15.07
2022-09-24T20:25:16.059Z,14.89
2022-09-24T20:27:55.544Z,15.11
2022-09-24T20:30:27.114Z,14.95
2022-09-24T20:32:56.788Z,14.74
2022-09-24T20:35:26.083Z,14.85
2022-09-24T20:37:55.412Z,14.87
2022-09-24T20:40:24.860Z,14.74
2022-09-24T20:42:54.497Z,15.13
2022-09-24T20:45:27.627Z,14.93
2022-09-24T20:47:56.961Z,14.74
2022-09-24T20:50:26.579Z,14.69
2022-09-24T20:52:55.974Z,14.93
2022-09-24T20:55:25.284Z,14.77
2022-09-24T20:57:55.039Z,14.64
2022-09-24T21:00:25.035Z,14.87
2022-09-24T21:02:56.562Z,14.40
2022-09-24T21:05:26.343Z,14.69
2022-09-24T21:07:56.141Z,15.41
2022-09-24T21:10:25.591Z,14.79
2022-09-24T21:12:54.841Z,15.05
2022-09-24T21:15:24.109Z,14.76
2022-09-24T21:18:21.259Z,14.75
2022-09-24T21:20:44.870Z,14.53
2022-09-24T21:23:15.374Z,14.35
2022-09-24T21:25:59.967Z,14.63
2022-09-24T21:28:31.150Z,14.42
2022-09-24T21:31:03.639Z,14.28
2022-09-24T21:33:35.497Z,14.47
2022-09-24T21:36:06.165Z,14.36
2022-09-24T21:38:35.785Z,14.17
2022-09-24T21:41:05.389Z,14.21
2022-09-24T21:43:36.091Z,14.26
2022-09-24T21:46:08.734Z,14.17
2022-09-24T21:48:39.755Z,14.60
2022-09-24T21:51:10.922Z,14.65
2022-09-24T21:53:40.425Z,14.35
2022-09-24T21:56:09.994Z,14.22
2022-09-24T21:58:39.336Z,14.32
2022-09-24T22:01:14.193Z,14.67
2022-09-24T22:03:46.813Z,14.72
2022-09-24T22:06:16.291Z,14.25
2022-09-24T22:08:47.418Z,14.44
2022-09-24T22:11:18.149Z,14.50
2022-09-24T22:13:47.973Z,13.98
2022-09-24T22:16:17.851Z,14.52
2022-09-24T22:18:48.855Z,14.81
2022-09-24T22:21:18.788Z,15.18
2022-09-24T22:23:48.176Z,14.18
2022-09-24T22:26:19.744Z,14.33
2022-09-24T22:28:49.142Z,13.96
2022-09-24T22:31:22.122Z,13.84
2022-09-24T22:34:10.257Z,13.67
2022-09-24T22:36:40.054Z,14.85
2022-09-24T22:39:12.833Z,15.45
2022-09-24T22:41:44.269Z,14.53
2022-09-24T22:44:14.439Z,14.63
2022-09-24T22:46:43.758Z,14.29
2022-09-24T22:49:14.275Z,14.07
2022-09-24T22:51:43.748Z,14.38
2022-09-24T22:54:16.342Z,13.97
2022-09-24T22:56:45.606Z,14.14
2022-09-24T22:59:15.533Z,14.36
2022-09-24T23:01:45.781Z,14.82
2022-09-24T23:04:16.796Z,14.29
2022-09-24T23:06:46.410Z,14.02
2022-09-24T23:09:15.704Z,13.79
2022-09-24T23:11:44.899Z,13.67
2022-09-24T23:14:18.567Z,14.50
2022-09-24T23:16:47.903Z,14.14
2022-09-24T23:19:20.774Z,15.01
2022-09-24T23:21:50.330Z,14.39
2022-09-24T23:24:22.036Z,14.68
2022-09-24T23:26:51.751Z,13.97
2022-09-24T23:29:21.509Z,14.57
2022-09-24T23:31:51.017Z,14.20
2022-09-24T23:34:22.021Z,14.27
2022-09-24T23:36:51.139Z,14.45
2022-09-24T23:39:20.676Z,14.30
2022-09-24T23:41:50.316Z,14.81
2022-09-24T23:44:19.640Z,14.03
2022-09-24T23:46:49.167Z,13.73
2022-09-24T23:49:18.697Z,14.53
2022-09-24T23:51:49.391Z,14.22
2022-09-24T23:54:19.088Z,13.99
2022-09-24T23:56:48.460Z,13.72
2022-09-24T23:59:18.186Z,13.81
